
Distance (Route):
Temperature : -56.6°C
Humidity : 56.5%
Pressure : 0hPa| Receiver | Frames | First received | Last received |
|---|---|---|---|
| LZ4TU-5 | 43 | 2026-09-02 23:04:56 | 2026-09-02 23:49:59 |
| Receiver | Date | Latitude | Longitude | Direction | Speed | Altitude | Climb | Temperature | Humidity | Pressure | Voltage | Killtimer | Uptime | BKT | XDATA |
|---|---|---|---|---|---|---|---|---|---|---|---|---|---|---|---|
| LZ4TU-5 | 2026-09-02 23:49:59 | 44.58375 | 26.80132 | 73° | 150km/h | 11934m | 4.1m/s | -56.6°C | 56.5% | 0hPa | 0V | 00:00:00 | 00:00:00 | 00:00:00 | |
| LZ4TU-5 | 2026-09-02 23:49:55 | 44.58331 | 26.79929 | 74° | 151km/h | 11919m | 4.5m/s | -56.5°C | 0% | 0hPa | 0V | 00:00:00 | 00:00:00 | 00:00:00 | |
| LZ4TU-5 | 2026-09-02 23:48:11 | 44.56890 | 26.74719 | 66° | 146km/h | 11491m | 4.6m/s | -54.2°C | 0% | 0hPa | 0V | 00:00:00 | 00:00:00 | 00:00:00 | |
| LZ4TU-5 | 2026-09-02 23:48:06 | 44.56812 | 26.74486 | 66° | 144km/h | 11469m | 5.3m/s | -54.1°C | 0% | 0hPa | 0V | 00:00:00 | 00:00:00 | 00:00:00 | |
| LZ4TU-5 | 2026-09-02 23:46:09 | 44.54868 | 26.69179 | 63° | 144km/h | 10988m | 3.7m/s | -50.3°C | 0% | 0hPa | 0V | 00:00:00 | 00:00:00 | 00:00:00 | |
| LZ4TU-5 | 2026-09-02 23:46:04 | 44.54785 | 26.68955 | 64° | 139km/h | 10968m | 3.9m/s | -50.1°C | 0% | 0hPa | 0V | 00:00:00 | 00:00:00 | 00:00:00 | |
| LZ4TU-5 | 2026-09-02 23:27:19 | 44.48212 | 26.33360 | 88° | 51km/h | 6432m | 3.6m/s | -15.9°C | 0% | 0hPa | 0V | 00:00:00 | 00:00:00 | 00:00:00 | |
| LZ4TU-5 | 2026-09-02 23:27:14 | 44.48209 | 26.33269 | 87° | 53km/h | 6414m | 3.9m/s | -15.9°C | 0% | 0hPa | 0V | 00:00:00 | 00:00:00 | 00:00:00 | |
| LZ4TU-5 | 2026-09-02 23:25:23 | 44.48139 | 26.31369 | 91° | 49km/h | 6015m | 3.6m/s | -14.2°C | 0% | 0hPa | 0V | 00:00:00 | 00:00:00 | 00:00:00 | |
| LZ4TU-5 | 2026-09-02 23:25:18 | 44.48138 | 26.31285 | 91° | 47km/h | 5998m | 2.9m/s | -14.0°C | 0% | 0hPa | 0V | 00:00:00 | 00:00:00 | 00:00:00 | |
| LZ4TU-5 | 2026-09-02 23:24:07 | 44.48208 | 26.30068 | 98° | 49km/h | 5740m | 3.7m/s | -12.0°C | 0% | 0hPa | 0V | 00:00:00 | 00:00:00 | 00:00:00 | |
| LZ4TU-5 | 2026-09-02 23:24:03 | 44.48215 | 26.29999 | 98° | 51km/h | 5726m | 3.0m/s | -11.8°C | 0% | 0hPa | 0V | 00:00:00 | 00:00:00 | 00:00:00 | |
| LZ4TU-5 | 2026-09-02 23:22:52 | 44.48310 | 26.28725 | 92° | 53km/h | 5469m | 4.3m/s | -9.8°C | 0% | 0hPa | 0V | 00:00:00 | 00:00:00 | 00:00:00 | |
| LZ4TU-5 | 2026-09-02 23:22:48 | 44.48311 | 26.28650 | 95° | 53km/h | 5455m | 3.6m/s | -9.7°C | 0% | 0hPa | 0V | 00:00:00 | 00:00:00 | 00:00:00 | |
| LZ4TU-5 | 2026-09-02 23:21:39 | 44.48387 | 26.27387 | 95° | 53km/h | 5218m | 3.0m/s | -8.0°C | 0% | 0hPa | 0V | 00:00:00 | 00:00:00 | 00:00:00 | |
| LZ4TU-5 | 2026-09-02 23:21:34 | 44.48394 | 26.27295 | 97° | 51km/h | 5200m | 4.3m/s | -7.9°C | 0% | 0hPa | 0V | 00:00:00 | 00:00:00 | 00:00:00 | |
| LZ4TU-5 | 2026-09-02 23:20:24 | 44.48474 | 26.26024 | 96° | 49km/h | 4951m | 3.4m/s | -6.6°C | 0% | 0hPa | 0V | 00:00:00 | 00:00:00 | 00:00:00 | |
| LZ4TU-5 | 2026-09-02 23:20:20 | 44.48480 | 26.25956 | 97° | 46km/h | 4936m | 4.1m/s | -6.5°C | 0% | 0hPa | 0V | 00:00:00 | 00:00:00 | 00:00:00 | |
| LZ4TU-5 | 2026-09-02 23:19:10 | 44.48587 | 26.24798 | 98° | 42km/h | 4677m | 3.5m/s | -4.8°C | 0% | 0hPa | 0V | 00:00:00 | 00:00:00 | 00:00:00 | |
| LZ4TU-5 | 2026-09-02 23:19:05 | 44.48596 | 26.24722 | 102° | 42km/h | 4659m | 4.0m/s | -4.6°C | 0% | 0hPa | 0V | 00:00:00 | 00:00:00 | 00:00:00 | |
| LZ4TU-5 | 2026-09-02 23:17:51 | 44.48799 | 26.23702 | 116° | 37km/h | 4369m | 4.1m/s | -4.9°C | 0% | 0hPa | 0V | 00:00:00 | 00:00:00 | 00:00:00 | |
| LZ4TU-5 | 2026-09-02 23:17:46 | 44.48820 | 26.23642 | 120° | 38km/h | 4349m | 4.9m/s | -4.8°C | 0% | 0hPa | 0V | 00:00:00 | 00:00:00 | 00:00:00 | |
| LZ4TU-5 | 2026-09-02 23:16:35 | 44.49130 | 26.22777 | 117° | 40km/h | 4059m | 4.2m/s | -2.6°C | 0% | 0hPa | 0V | 00:00:00 | 00:00:00 | 00:00:00 | |
| LZ4TU-5 | 2026-09-02 23:16:32 | 44.49147 | 26.22723 | 111° | 44km/h | 4043m | 4.3m/s | -2.4°C | 0% | 0hPa | 0V | 00:00:00 | 00:00:00 | 00:00:00 | |
| LZ4TU-5 | 2026-09-02 23:15:21 | 44.49418 | 26.21731 | 109° | 46km/h | 3752m | 3.7m/s | -0.1°C | 0% | 0hPa | 0V | 00:00:00 | 00:00:00 | 00:00:00 | |
| LZ4TU-5 | 2026-09-02 23:15:17 | 44.49435 | 26.21663 | 113° | 37km/h | 3730m | 4.3m/s | 0.1°C | 0% | 0hPa | 0V | 00:00:00 | 00:00:00 | 00:00:00 | |
| LZ4TU-5 | 2026-09-02 23:14:13 | 44.49680 | 26.20845 | 126° | 27km/h | 3416m | 4.3m/s | 1.9°C | 0% | 0hPa | 0V | 00:00:00 | 00:00:00 | 00:00:00 | |
| LZ4TU-5 | 2026-09-02 23:14:08 | 44.49687 | 26.20794 | 105° | 37km/h | 3386m | 6.5m/s | 2.2°C | 0% | 0hPa | 0V | 00:00:00 | 00:00:00 | 00:00:00 | |
| LZ4TU-5 | 2026-09-02 23:13:04 | 44.49848 | 26.20080 | 131° | 26km/h | 3069m | 6.2m/s | 3.5°C | 0% | 0hPa | 0V | 00:00:00 | 00:00:00 | 00:00:00 | |
| LZ4TU-5 | 2026-09-02 23:12:59 | 44.49866 | 26.20048 | 109° | 26km/h | 3046m | 4.6m/s | 3.7°C | 0% | 0hPa | 0V | 00:00:00 | 00:00:00 | 00:00:00 | |
| LZ4TU-5 | 2026-09-02 23:11:51 | 44.49984 | 26.19700 | 113° | 15km/h | 2714m | 4.1m/s | 6.5°C | 0% | 0hPa | 0V | 00:00:00 | 00:00:00 | 00:00:00 | |
| LZ4TU-5 | 2026-09-02 23:10:48 | 44.50038 | 26.19386 | 126° | 13km/h | 2466m | 4.7m/s | 7.9°C | 0% | 0hPa | 0V | 00:00:00 | 00:00:00 | 00:00:00 | |
| LZ4TU-5 | 2026-09-02 23:10:43 | 44.50048 | 26.19360 | 122° | 15km/h | 2443m | 3.5m/s | 0°C | 0% | 0hPa | 0V | 00:00:00 | 00:00:00 | 00:00:00 | |
| LZ4TU-5 | 2026-09-02 23:09:38 | 44.50101 | 26.19058 | 82° | 20km/h | 2168m | 4.2m/s | 0°C | 0% | 0hPa | 0V | 00:00:00 | 00:00:00 | 00:00:00 | |
| LZ4TU-5 | 2026-09-02 23:09:33 | 44.50088 | 26.19034 | 33° | 11km/h | 2145m | 4.7m/s | 0°C | 0% | 0hPa | 0V | 00:00:00 | 00:00:00 | 00:00:00 | |
| LZ4TU-5 | 2026-09-02 23:08:28 | 44.49916 | 26.18951 | 9° | 9km/h | 1831m | 6.0m/s | 0°C | 0% | 0hPa | 0V | 00:00:00 | 00:00:00 | 00:00:00 | |
| LZ4TU-5 | 2026-09-02 23:08:23 | 44.49905 | 26.18966 | 322° | 18km/h | 1809m | 3.7m/s | 0°C | 0% | 0hPa | 0V | 00:00:00 | 00:00:00 | 00:00:00 | |
| LZ4TU-5 | 2026-09-02 23:07:18 | 44.49600 | 26.19070 | 320° | 27km/h | 1495m | 4.2m/s | 0°C | 0% | 0hPa | 0V | 00:00:00 | 00:00:00 | 00:00:00 | |
| LZ4TU-5 | 2026-09-02 23:07:13 | 44.49579 | 26.19104 | 329° | 15km/h | 1476m | 4.0m/s | 0°C | 0% | 0hPa | 0V | 00:00:00 | 00:00:00 | 00:00:00 | |
| LZ4TU-5 | 2026-09-02 23:06:09 | 44.49301 | 26.19426 | 311° | 20km/h | 1157m | 4.7m/s | 0°C | 0% | 0hPa | 0V | 00:00:00 | 00:00:00 | 00:00:00 | |
| LZ4TU-5 | 2026-09-02 23:06:04 | 44.49274 | 26.19445 | 337° | 26km/h | 1136m | 3.1m/s | 0°C | 0% | 0hPa | 0V | 00:00:00 | 00:00:00 | 00:00:00 | |
| LZ4TU-5 | 2026-09-02 23:05:01 | 44.49126 | 26.19733 | 255° | 27km/h | 837m | 4.7m/s | 0°C | 0% | 0hPa | 0V | 00:00:00 | 00:00:00 | 00:00:00 | |
| LZ4TU-5 | 2026-09-02 23:04:56 | 44.49130 | 26.19786 | 273° | 26km/h | 816m | 4.6m/s | 0°C | 0% | 0hPa | 0V | 00:00:00 | 00:00:00 | 00:00:00 |